Weather at New Scotland Airport

Public forecast

Using degrees Celsius for public forecast. Weather courtesy of forecast.io.

Closest aviation weather report (METAR) to New Scotland Airport

Report is more than 6 hours old.

Closest report is Matsapha Airport, 33.8 nm (62.6 km) ESE. Retrieved 2020/09/28 09:00 UTC (3 days ago):

FDMS 280900Z 19005KT 9999 SCT015 BKN025 15/14 Q1021 TEMPO 7000 -RA

Closest aviation forecast (TAF) to New Scotland Airport

Forecast is more than 12 hours old.

Closest forecast is Matsapha Airport, 33.8 nm (62.6 km) ESE. Retrieved 2020/03/05 06:00 UTC (7 months ago):

TAF TAF FDMS 050400Z 0506/0518 06007KT CAVOK